X  Fermer Données météorologiques d'aviation de Metar     EHRD Rotterdam The Hague Airport
Température
4°C Température
2°C Point de rosée
87% Humidité



Vent
8 KM/H
5 MPH
2 M/S
4 KTS



70°
ENE
Conditions actuelles

Clair Clair
Pression 1038.91 (hPa) - 30.68 (inHg)
Visibilité 6.2 (mile) - 10 (km)
Aéroport
Code de l'aéroport EHRD

Emplacement: Rotterdam The Hague Airport
Distance: 14 (km)

Metar:
EHRD 071325Z AUTO 07004KT 040V120 9999 NCD 04/02 Q1039 NOSIG

Temps: 07-02-2023 14:25 CET